Time;durP1;ratioP1;P1;durP2;ratioP2;P2;SDS_P1;SDS_P2;PMS_P1;PMS_P2;Temp;Humidity;BMP_temperature;BMP_pressure;BME280_temperature;BME280_humidity;BME280_pressure;Samples;Min_cycle;Max_cycle;Signal;HPM_P1;HPM_P2
2022/11/24 05:06:56;;;;;;;49.63;27.33;;;;;;;8.15;100.00;99620.81;5600995;31;257273;-55
2022/11/24 05:13:19;;;;;;;53.35;31.58;;;;;;;7.51;90.16;99625.34;5595983;31;34021;-55
2022/11/24 05:16:21;;;;;;;54.42;30.52;;;;;;;7.52;93.37;99627.75;5603647;31;33669;-55
2022/11/24 05:19:23;;;;;;;54.50;30.88;;;;;;;7.60;94.82;99628.22;5603581;31;33403;-56
2022/11/24 05:22:31;;;;;;;53.00;31.25;;;;;;;7.58;93.81;99633.03;5603332;31;34286;-55
2022/11/24 05:25:34;;;;;;;51.67;29.95;;;;;;;7.54;88.25;99640.81;5603490;31;33703;-55
2022/11/24 05:28:36;;;;;;;50.12;29.55;;;;;;;7.50;87.21;99639.78;5602688;31;34441;-55
2022/11/24 05:31:38;;;;;;;51.53;29.63;;;;;;;7.74;94.96;99642.53;5603546;31;33645;-55
2022/11/24 05:34:40;;;;;;;53.58;30.20;;;;;;;7.66;96.80;99635.91;5603402;31;33554;-55
2022/11/24 05:37:42;;;;;;;55.50;30.88;;;;;;;7.67;100.00;99644.72;5602415;31;33684;-56
2022/11/24 05:40:45;;;;;;;49.72;27.27;;;;;;;7.95;88.30;99651.97;5601859;31;33670;-55
2022/11/24 05:43:47;;;;;;;52.90;31.92;;;;;;;8.03;100.00;99655.91;5603465;31;34265;-55
2022/11/24 05:46:50;;;;;;;49.90;29.58;;;;;;;8.20;99.77;99648.25;5599565;31;33567;-55
2022/11/24 05:49:52;;;;;;;55.15;30.30;;;;;;;7.95;85.93;99651.16;5583732;32;34285;-55
2022/11/24 05:52:54;;;;;;;50.95;29.33;;;;;;;7.87;85.92;99663.22;5583571;32;33474;-55
2022/11/24 05:55:56;;;;;;;54.03;30.02;;;;;;;7.71;90.00;99653.75;5583356;31;33728;-56
2022/11/24 05:58:58;;;;;;;50.65;30.95;;;;;;;7.79;85.20;99661.16;5600354;31;33302;-55
2022/11/24 06:02:04;;;;;;;52.13;30.20;;;;;;;7.87;90.64;99667.78;5602783;31;34212;-55
2022/11/24 06:05:06;;;;;;;54.85;31.27;;;;;;;7.81;86.71;99675.00;5602777;31;33779;-56
2022/11/24 06:08:09;;;;;;;48.35;29.25;;;;;;;7.59;86.07;99680.00;5591550;31;33663;-55
2022/11/24 06:11:17;;;;;;;50.08;30.58;;;;;;;7.62;84.31;99677.56;5592400;31;34042;-55
2022/11/24 06:14:19;;;;;;;41.40;22.65;;;;;;;7.46;86.74;99681.41;5602954;31;33663;-56
2022/11/24 06:17:21;;;;;;;43.33;25.42;;;;;;;7.68;86.19;99683.66;5593501;31;34279;-55
2022/11/24 06:20:24;;;;;;;42.78;22.45;;;;;;;7.95;85.63;99686.66;5588089;31;33644;-55
2022/11/24 06:23:32;;;;;;;39.95;22.92;;;;;;;7.97;87.01;99679.16;5575244;31;33559;-56
2022/11/24 06:26:34;;;;;;;45.35;25.00;;;;;;;7.82;86.63;99691.84;5569664;32;33682;-55
2022/11/24 06:29:37;;;;;;;45.47;26.08;;;;;;;8.30;85.10;99697.31;5572784;31;34324;-55
2022/11/24 06:32:43;;;;;;;48.97;26.50;;;;;;;8.06;87.12;99706.06;5563834;31;33662;-54
2022/11/24 06:35:51;;;;;;;45.38;26.60;;;;;;;7.99;81.53;99713.59;5569097;32;33622;-56
2022/11/24 06:38:53;;;;;;;47.85;27.05;;;;;;;8.00;78.60;99710.63;5568218;31;33712;-54
2022/11/24 06:41:56;;;;;;;42.50;24.75;;;;;;;7.70;82.14;99714.31;5570067;31;33288;-55
2022/11/24 06:44:58;;;;;;;41.05;26.52;;;;;;;7.74;80.91;99720.69;5568051;32;34394;-55
2022/11/24 06:48:01;;;;;;;45.08;25.90;;;;;;;7.64;85.70;99722.62;5569522;32;33611;-55
2022/11/24 06:51:06;;;;;;;45.80;26.08;;;;;;;7.75;93.62;99726.84;5568341;31;34316;-55
2022/11/24 06:54:12;;;;;;;47.15;25.65;;;;;;;7.86;90.86;99735.56;5570800;31;33721;-56
2022/11/24 06:57:14;;;;;;;38.45;23.58;;;;;;;7.86;82.03;99732.91;5581346;31;34256;-55
2022/11/24 07:00:17;;;;;;;42.47;25.42;;;;;;;7.84;89.31;99743.03;5569118;32;33658;-55
2022/11/24 07:03:19;;;;;;;40.65;23.73;;;;;;;7.76;82.10;99744.44;5569099;32;34321;-55
2022/11/24 07:06:24;;;;;;;40.67;24.20;;;;;;;7.96;97.34;99741.63;5567871;31;33824;-55
2022/11/24 07:09:26;;;;;;;44.67;25.05;;;;;;;7.94;85.36;99757.09;5567393;32;33822;-55
2022/11/24 07:12:34;;;;;;;41.83;24.40;;;;;;;7.91;86.13;99764.87;5567015;32;34599;-56
2022/11/24 07:15:39;;;;;;;42.03;25.98;;;;;;;7.76;88.14;99766.56;5569029;31;33650;-55
2022/11/24 07:18:46;;;;;;;39.95;23.38;;;;;;;7.73;84.26;99775.13;5568597;31;34321;-55
2022/11/24 07:21:48;;;;;;;42.95;24.70;;;;;;;8.20;88.36;99772.94;5582275;31;33311;-56
2022/11/24 07:24:50;;;;;;;40.00;23.52;;;;;;;7.93;83.61;99778.75;5567234;31;33653;-55
2022/11/24 07:27:56;;;;;;;44.42;24.33;;;;;;;7.88;88.38;99790.25;5565254;32;33854;-55
2022/11/24 07:31:10;;;;;;;42.75;24.58;;;;;;;7.96;89.89;99780.87;5565361;32;34326;-55
2022/11/24 07:34:13;;;;;;;42.40;23.23;;;;;;;7.98;90.41;99776.84;5569190;31;34405;-57
2022/11/24 07:37:16;;;;;;;42.38;24.87;;;;;;;8.22;96.47;99782.28;5565740;31;34377;-55
2022/11/24 07:40:18;;;;;;;38.00;23.42;;;;;;;8.08;79.29;99792.00;5566727;31;33704;-56
2022/11/24 07:43:20;;;;;;;41.88;23.90;;;;;;;8.05;83.69;99789.88;5566811;32;33306;-55
2022/11/24 07:46:23;;;;;;;45.10;22.02;;;;;;;7.99;85.52;99789.13;5584608;31;33621;-55
2022/11/24 07:49:25;;;;;;;42.80;23.35;;;;;;;8.02;90.06;99792.31;5565266;31;33746;-56
2022/11/24 07:52:27;;;;;;;38.55;22.02;;;;;;;8.12;86.47;99793.03;5571665;31;33589;-55
2022/11/24 07:55:29;;;;;;;34.42;20.42;;;;;;;8.00;84.07;99798.72;5578582;31;33528;-54
2022/11/24 07:58:34;;;;;;;35.75;21.70;;;;;;;8.09;98.48;99801.59;5586609;31;34312;-56
2022/11/24 08:01:37;;;;;;;35.33;20.20;;;;;;;8.15;91.70;99805.03;5568276;32;33713;-55
2022/11/24 08:04:39;;;;;;;39.42;21.10;;;;;;;8.42;87.53;99801.94;5567210;32;33761;-55
2022/11/24 08:07:41;;;;;;;32.75;20.15;;;;;;;8.41;94.99;99794.97;5568426;32;33671;-55
2022/11/24 08:10:43;;;;;;;35.42;21.00;;;;;;;8.62;96.93;99792.94;5582028;31;33556;-55
2022/11/24 08:13:46;;;;;;;36.53;21.27;;;;;;;8.49;85.86;99798.94;5572385;31;33775;-55
2022/11/24 08:16:48;;;;;;;33.30;20.52;;;;;;;8.62;86.83;99790.28;5563969;32;33684;-56
2022/11/24 08:19:50;;;;;;;39.80;21.85;;;;;;;8.67;93.77;99791.00;5569413;31;33628;-55
2022/11/24 08:22:57;;;;;;;35.97;20.77;;;;;;;8.58;85.99;99803.41;5567362;32;33592;-56
2022/11/24 08:26:04;;;;;;;40.22;22.00;;;;;;;8.68;97.16;99805.19;5567142;31;33338;-56
2022/11/24 08:29:06;;;;;;;37.85;21.90;;;;;;;9.17;87.37;99809.47;5567988;31;34362;-55
2022/11/24 08:32:09;;;;;;;38.63;21.23;;;;;;;9.30;85.96;99816.03;5578100;31;34256;-56
2022/11/24 08:35:12;;;;;;;40.95;22.45;;;;;;;9.16;88.15;99815.91;5568260;31;33228;-56
2022/11/24 08:38:16;;;;;;;41.95;24.08;;;;;;;8.94;84.88;99825.25;5584188;31;33728;-56
2022/11/24 08:41:18;;;;;;;45.72;22.50;;;;;;;8.65;80.28;99829.78;5573339;31;33761;-55
2022/11/24 08:44:20;;;;;;;37.88;22.15;;;;;;;8.54;85.44;99830.94;5566166;32;33714;-55
2022/11/24 08:47:22;;;;;;;39.00;23.33;;;;;;;9.09;90.48;99828.84;5568759;31;33608;-55
2022/11/24 08:50:25;;;;;;;39.70;23.98;;;;;;;9.09;91.98;99836.84;5582661;31;33598;-55
2022/11/24 08:53:27;;;;;;;43.15;25.10;;;;;;;9.28;90.68;99829.69;5568018;32;33765;-55
2022/11/24 08:56:32;;;;;;;44.88;24.98;;;;;;;9.05;92.48;99841.97;5559945;31;33763;-56
2022/11/24 08:59:35;;;;;;;43.95;24.98;;;;;;;8.82;80.80;99840.06;5548536;32;33713;-55
2022/11/24 09:02:38;;;;;;;41.22;23.77;;;;;;;9.23;87.79;99832.41;5568890;31;35020;-56
2022/11/24 09:05:40;;;;;;;46.37;24.52;;;;;;;9.26;86.55;99842.53;5565739;31;32230;-55
2022/11/24 09:08:58;;;;;;;37.33;21.95;;;;;;;9.05;85.68;99841.19;5567253;32;33362;-55
2022/11/24 09:12:01;;;;;;;46.35;25.73;;;;;;;8.94;94.46;99843.16;5567074;31;33668;-56
2022/11/24 09:15:03;;;;;;;44.40;25.80;;;;;;;8.96;77.33;99848.22;5567259;32;33685;-55
2022/11/24 09:18:06;;;;;;;45.47;24.90;;;;;;;8.96;85.56;99843.66;5568088;32;34428;-55
2022/11/24 09:21:11;;;;;;;44.72;23.62;;;;;;;9.06;75.32;99845.44;5567364;31;33800;-55
2022/11/24 09:24:15;;;;;;;44.47;24.80;;;;;;;8.90;83.44;99848.25;5565850;32;34268;-56
2022/11/24 09:27:17;;;;;;;47.40;24.50;;;;;;;8.77;78.56;99856.91;5569669;31;33677;-55
2022/11/24 09:30:19;;;;;;;44.83;25.08;;;;;;;9.05;83.60;99847.31;5568710;31;34270;-55
2022/11/24 09:33:21;;;;;;;42.60;24.23;;;;;;;8.90;76.04;99853.59;5567753;31;33603;-56
2022/11/24 09:36:24;;;;;;;35.88;20.88;;;;;;;8.80;77.89;99859.03;5559908;31;33641;-55
2022/11/24 09:39:26;;;;;;;41.92;23.30;;;;;;;9.15;88.89;99852.56;5561767;32;33633;-55
2022/11/24 09:42:39;;;;;;;40.40;23.50;;;;;;;9.05;76.52;99867.91;5571993;31;33665;-55
2022/11/24 09:45:44;;;;;;;33.65;20.77;;;;;;;9.17;79.60;99857.63;5565676;31;33626;-56
2022/11/24 09:49:13;;;;;;;35.33;19.58;;;;;;;9.70;87.20;99854.06;5566898;32;33772;-55
2022/11/24 09:52:22;;;;;;;34.00;20.58;;;;;;;9.71;79.43;99855.69;5566532;31;33448;-55
2022/11/24 09:55:31;;;;;;;35.63;20.42;;;;;;;9.72;77.89;99862.63;5569699;31;34332;-56
2022/11/24 09:58:44;;;;;;;35.22;20.65;;;;;;;10.02;83.44;99864.91;5570088;31;33767;-55
2022/11/24 10:01:49;;;;;;;35.38;20.60;;;;;;;9.95;67.66;99851.06;5582075;31;33103;-56
2022/11/24 10:04:53;;;;;;;34.17;21.23;;;;;;;9.40;72.83;99864.87;5569606;32;33566;-56
2022/11/24 10:08:24;;;;;;;31.67;18.35;;;;;;;9.18;70.78;99853.88;5569448;31;33650;-56
2022/11/24 10:11:37;;;;;;;33.55;19.52;;;;;;;9.28;71.92;99861.00;5567473;32;33695;-55
2022/11/24 10:15:17;;;;;;;30.08;17.50;;;;;;;8.82;66.41;99883.62;5568973;32;34280;-55
2022/11/24 10:18:32;;;;;;;30.20;19.10;;;;;;;8.80;75.18;99860.91;5572779;31;33668;-55
2022/11/24 10:21:53;;;;;;;28.67;17.58;;;;;;;8.80;61.67;99860.91;5573635;31;33649;-56
2022/11/24 10:25:18;;;;;;;35.00;18.77;;;;;;;8.69;67.71;99863.66;5566340;32;34419;-55
2022/11/24 10:28:20;;;;;;;28.30;16.60;;;;;;;9.16;70.10;99874.75;5566811;32;33734;-55
2022/11/24 10:31:34;;;;;;;29.37;16.73;;;;;;;9.29;71.59;99863.37;5566969;31;33677;-56
2022/11/24 10:34:42;;;;;;;31.70;17.80;;;;;;;9.65;77.28;99868.31;5566601;31;33825;-56
2022/11/24 10:38:01;;;;;;;28.60;15.70;;;;;;;9.63;64.67;99867.81;5564103;31;34310;-56
2022/11/24 10:41:19;;;;;;;31.08;17.48;;;;;;;9.52;67.55;99869.03;5566823;32;34432;-55
2022/11/24 10:44:21;;;;;;;28.98;16.48;;;;;;;9.35;61.38;99872.94;5566748;32;33770;-56
2022/11/24 10:47:23;;;;;;;31.80;17.20;;;;;;;9.19;60.55;99879.53;5574576;31;33340;-55
2022/11/24 10:50:29;;;;;;;28.73;17.90;;;;;;;9.00;66.19;99887.47;5569128;32;34260;-55
2022/11/24 10:53:34;;;;;;;30.77;17.60;;;;;;;9.15;77.59;99899.91;5569208;32;34297;-56
2022/11/24 10:56:41;;;;;;;30.42;17.55;;;;;;;9.06;74.67;99893.56;5575179;31;33749;-55
2022/11/24 10:59:43;;;;;;;28.05;17.58;;;;;;;9.29;69.59;99895.47;5589026;31;34360;-55
2022/11/24 11:02:47;;;;;;;28.80;17.25;;;;;;;9.34;68.66;99905.34;5588989;31;33637;-55
2022/11/24 11:05:55;;;;;;;33.10;18.55;;;;;;;9.32;85.12;99908.28;5587486;31;34390;-55
2022/11/24 11:09:19;;;;;;;32.13;19.85;;;;;;;9.57;72.09;99911.75;5567261;32;33848;-55
2022/11/24 11:12:31;;;;;;;31.40;18.55;;;;;;;9.39;69.44;99910.63;5566819;32;33893;-55
2022/11/24 11:15:49;;;;;;;29.95;18.23;;;;;;;9.22;66.01;99916.41;5564046;31;33646;-56
2022/11/24 11:18:52;;;;;;;30.95;18.17;;;;;;;9.47;73.73;99914.53;5565828;31;33750;-55
2022/11/24 11:22:00;;;;;;;30.62;18.08;;;;;;;9.45;82.46;99919.41;5568602;32;32419;-56
2022/11/24 11:25:09;;;;;;;31.33;19.27;;;;;;;9.37;68.02;99921.62;5566999;32;33564;-56
2022/11/24 11:28:17;;;;;;;27.58;16.80;;;;;;;9.23;67.74;99922.56;5582644;31;33719;-55
2022/11/24 11:31:20;;;;;;;28.30;17.50;;;;;;;9.20;66.95;99923.91;5588649;31;34041;-55
2022/11/24 11:34:24;;;;;;;32.00;18.02;;;;;;;9.02;68.17;99920.06;5585781;31;33818;-55
2022/11/24 11:37:36;;;;;;;31.00;17.62;;;;;;;8.83;69.38;99924.50;5570736;31;34382;-55
2022/11/24 11:40:41;;;;;;;27.20;16.45;;;;;;;8.76;68.17;99919.47;5567691;32;34468;-56
2022/11/24 11:43:49;;;;;;;30.20;16.67;;;;;;;8.81;71.04;99921.31;5557973;31;33697;-56
2022/11/24 11:46:53;;;;;;;30.62;16.35;;;;;;;8.68;70.58;99918.19;5562697;32;34363;-55
2022/11/24 11:49:56;;;;;;;25.92;15.93;;;;;;;8.73;68.93;99921.91;5569221;31;34387;-56
2022/11/24 11:53:17;;;;;;;26.67;15.10;;;;;;;8.72;69.42;99918.44;5567215;31;33683;-55
2022/11/24 11:56:29;;;;;;;23.65;14.43;;;;;;;8.81;70.05;99926.66;5566656;32;33475;-55
2022/11/24 11:59:53;;;;;;;25.75;15.57;;;;;;;8.91;70.56;99922.03;5569265;32;34339;-55
2022/11/24 12:03:41;;;;;;;26.77;15.27;;;;;;;8.93;72.28;99933.22;5569173;31;33656;-55
2022/11/24 12:07:05;;;;;;;22.77;13.85;;;;;;;8.82;70.75;99923.72;5558249;32;34353;-55
2022/11/24 12:10:24;;;;;;;24.90;14.00;;;;;;;8.70;70.76;99931.28;5567516;31;33947;-56
2022/11/24 12:13:52;;;;;;;20.00;13.10;;;;;;;8.73;72.00;99936.06;5566567;31;34385;-55
2022/11/24 12:17:06;;;;;;;23.80;14.50;;;;;;;8.80;72.57;99925.06;5567419;32;34053;-55
2022/11/24 12:20:36;;;;;;;23.70;14.48;;;;;;;8.75;71.88;99931.25;5566800;32;33578;-55
2022/11/24 12:23:51;;;;;;;24.35;14.20;;;;;;;8.70;71.84;99921.38;5570547;31;33722;-55
2022/11/24 12:27:02;;;;;;;22.73;13.02;;;;;;;8.98;80.10;99919.03;5566496;32;34474;-55
2022/11/24 12:30:11;;;;;;;24.48;13.52;;;;;;;8.74;72.07;99918.97;5548905;32;33809;-55
2022/11/24 12:33:28;;;;;;;21.77;13.48;;;;;;;8.63;72.79;99915.56;5572844;31;33257;-55
2022/11/24 12:36:39;;;;;;;23.40;13.27;;;;;;;8.57;76.27;99934.56;5565509;31;33819;-54
2022/11/24 12:40:02;;;;;;;22.27;12.77;;;;;;;8.59;74.35;99917.19;5571273;31;34417;-54
2022/11/24 12:43:21;;;;;;;20.60;12.75;;;;;;;8.57;72.39;99913.19;5561738;32;32934;-55
2022/11/24 12:46:50;;;;;;;19.95;12.73;;;;;;;8.45;72.11;99934.94;5569306;31;33679;-55
2022/11/24 12:50:04;;;;;;;22.73;13.40;;;;;;;8.42;74.04;99938.94;5568594;31;34283;-55
2022/11/24 12:53:20;;;;;;;20.83;13.10;;;;;;;8.44;72.72;99942.16;5567137;31;33938;-55
2022/11/24 12:56:42;;;;;;;20.45;13.88;;;;;;;8.51;74.98;99962.37;5554724;31;33795;-55
2022/11/24 13:00:06;;;;;;;22.80;13.77;;;;;;;8.53;73.53;99961.03;5555647;31;33859;-55
2022/11/24 13:03:30;;;;;;;21.48;13.82;;;;;;;8.62;73.88;99959.38;5560913;32;34379;-55
2022/11/24 13:07:09;;;;;;;22.75;13.88;;;;;;;8.66;73.08;99971.13;5567320;32;34051;-55
2022/11/24 13:10:38;;;;;;;18.65;11.77;;;;;;;8.58;72.03;99962.91;5556947;31;33627;-56
2022/11/24 13:14:05;;;;;;;;;;;;;;;8.50;73.89;99971.47;5565398;32;33647;-55
2022/11/24 13:17:30;;;;;;;18.40;11.57;;;;;;;8.50;71.89;99958.91;5567584;32;34154;-55
2022/11/24 13:20:51;;;;;;;25.40;14.32;;;;;;;8.69;74.61;99973.22;5566803;32;34306;-55
2022/11/24 13:23:58;;;;;;;18.75;11.82;;;;;;;8.78;74.20;99978.00;5567595;32;33771;-55
2022/11/24 13:27:17;;;;;;;20.98;12.43;;;;;;;8.80;72.47;99976.63;5568079;32;33650;-55
2022/11/24 13:30:34;;;;;;;19.30;11.77;;;;;;;8.79;71.97;99982.28;5569969;32;34254;-55
2022/11/24 13:33:37;;;;;;;22.73;13.73;;;;;;;8.73;72.94;99986.84;5569588;32;34400;-55
2022/11/24 13:36:52;;;;;;;18.90;13.23;;;;;;;8.68;71.63;99978.87;5568005;32;33415;-56
2022/11/24 13:40:10;;;;;;;21.00;12.02;;;;;;;8.59;73.76;99977.84;5570323;32;33159;-55
2022/11/24 13:43:12;;;;;;;18.83;12.02;;;;;;;8.64;73.10;99996.50;5569585;32;34298;-55
2022/11/24 13:46:53;;;;;;;19.95;12.35;;;;;;;8.57;73.01;99985.34;5570214;32;34329;-55
2022/11/24 13:50:03;;;;;;;20.23;12.57;;;;;;;8.63;74.40;99984.22;5570246;32;33794;-55
2022/11/24 13:53:17;;;;;;;17.30;13.02;;;;;;;8.59;72.92;99989.34;5569509;32;33648;-55
2022/11/24 13:56:23;;;;;;;18.00;12.43;;;;;;;8.65;73.87;99990.91;5559770;32;34366;-55
2022/11/24 13:59:31;;;;;;;;;;;;;;;8.61;72.09;99997.06;5570912;32;34375;-55
2022/11/24 14:02:34;;;;;;;21.00;13.50;;;;;;;8.64;72.41;100004.53;5570557;32;33947;-55
2022/11/24 14:05:40;;;;;;;17.70;11.90;;;;;;;8.68;73.82;99994.91;5570530;32;33802;-56
2022/11/24 14:08:44;;;;;;;18.23;12.00;;;;;;;8.98;72.21;100004.59;5570480;32;34241;-55
2022/11/24 14:11:58;;;;;;;20.00;12.80;;;;;;;8.94;74.34;100006.22;5570314;32;33608;-55
2022/11/24 14:15:21;;;;;;;21.65;12.35;;;;;;;9.04;73.11;100013.34;5570026;32;33683;-55
2022/11/24 14:18:23;;;;;;;18.15;12.65;;;;;;;9.02;73.21;100023.53;5569948;32;34350;-55
2022/11/24 14:21:41;;;;;;;19.45;12.57;;;;;;;8.83;71.42;100018.84;5569937;32;33748;-55
2022/11/24 14:24:49;;;;;;;17.75;11.80;;;;;;;8.75;71.79;100019.44;5569923;32;33839;-54
2022/11/24 14:27:51;;;;;;;16.90;11.55;;;;;;;8.75;71.73;100026.66;5569963;32;34288;-55
2022/11/24 14:31:08;;;;;;;19.55;11.73;;;;;;;8.60;72.67;100016.84;5569885;32;33827;-55
2022/11/24 14:34:10;;;;;;;20.58;12.73;;;;;;;8.71;73.97;100031.75;5569940;32;33665;-55
2022/11/24 14:37:13;;;;;;;17.55;12.25;;;;;;;8.76;73.56;100026.38;5569469;32;33267;-55
2022/11/24 14:40:44;;;;;;;20.88;12.60;;;;;;;8.61;72.97;100032.63;5570105;32;33466;-55
2022/11/24 14:43:46;;;;;;;20.50;12.77;;;;;;;8.79;72.35;100035.72;5560153;32;34348;-55
2022/11/24 14:46:49;;;;;;;20.00;12.05;;;;;;;8.76;72.55;100042.41;5569242;32;34432;-55
2022/11/24 14:49:52;;;;;;;18.60;12.05;;;;;;;8.82;72.20;100052.00;5569909;32;33693;-55
2022/11/24 14:52:57;;;;;;;21.70;12.30;;;;;;;8.78;72.60;100053.63;5569925;32;33765;-55
2022/11/24 14:56:20;;;;;;;17.62;11.52;;;;;;;8.88;76.17;100053.56;5570174;32;34379;-55
2022/11/24 14:59:24;;;;;;;18.00;11.82;;;;;;;8.88;71.00;100066.94;5569222;32;34472;-55
2022/11/24 15:02:47;;;;;;;20.05;13.43;;;;;;;9.00;71.95;100071.94;5569806;32;33589;-55
2022/11/24 15:05:54;;;;;;;19.02;12.60;;;;;;;9.37;91.12;100078.63;5569974;32;33686;-55
2022/11/24 15:08:57;;;;;;;20.00;12.32;;;;;;;9.34;73.33;100085.38;5569786;32;34433;-56
2022/11/24 15:12:05;;;;;;;21.08;12.00;;;;;;;9.26;80.00;100085.16;5569797;32;33908;-57
2022/11/24 15:15:13;;;;;;;20.10;12.98;;;;;;;9.05;70.86;100093.31;5569821;32;33270;-55
2022/11/24 15:18:34;;;;;;;21.65;13.57;;;;;;;8.77;71.99;100083.28;5569817;32;34443;-55
2022/11/24 15:21:36;;;;;;;22.05;14.35;;;;;;;8.73;71.66;100085.72;5569720;32;33646;-56
2022/11/24 15:24:49;;;;;;;23.83;15.15;;;;;;;8.51;70.19;100087.94;5569831;32;33668;-55
2022/11/24 15:27:52;;;;;;;24.63;14.90;;;;;;;8.52;71.37;100100.25;5569474;32;33780;-55
2022/11/24 15:31:00;;;;;;;24.63;14.20;;;;;;;8.60;72.65;100097.00;5568632;32;33765;-56
2022/11/24 15:34:02;;;;;;;22.95;14.10;;;;;;;8.79;74.87;100098.00;5569875;32;34366;-55
2022/11/24 15:37:04;;;;;;;20.98;12.95;;;;;;;8.81;78.16;100101.19;5569472;32;33649;-55
2022/11/24 15:40:09;;;;;;;26.87;15.25;;;;;;;8.88;71.49;100101.69;5568865;32;34464;-55
2022/11/24 15:43:28;;;;;;;24.83;15.02;;;;;;;8.86;70.41;100095.81;5569398;32;34079;-55
2022/11/24 15:46:36;;;;;;;23.20;14.43;;;;;;;8.94;84.67;100108.63;5569818;32;33646;-55
2022/11/24 15:49:39;;;;;;;23.73;14.57;;;;;;;8.77;72.84;100107.34;5568294;32;33989;-55
2022/11/24 15:52:42;;;;;;;20.45;14.10;;;;;;;8.80;70.44;100118.28;5569344;32;33696;-55
2022/11/24 15:55:44;;;;;;;19.87;12.70;;;;;;;8.71;70.46;100111.94;5569462;32;33768;-55
2022/11/24 15:58:47;;;;;;;20.90;13.85;;;;;;;8.84;81.66;100105.16;5569151;32;33907;-55
2022/11/24 16:01:49;;;;;;;25.55;15.43;;;;;;;8.89;71.69;100113.97;5569234;32;33799;-55
2022/11/24 16:04:52;;;;;;;21.58;13.73;;;;;;;8.86;77.22;100121.75;5569417;32;34523;-55
2022/11/24 16:07:54;;;;;;;21.58;13.43;;;;;;;8.91;82.14;100121.72;5569373;32;34314;-55
2022/11/24 16:10:56;;;;;;;22.08;14.73;;;;;;;9.06;80.78;100124.31;5569380;32;34322;-55
2022/11/24 16:13:58;;;;;;;23.62;15.48;;;;;;;8.91;73.37;100125.19;5569509;32;33678;-55
2022/11/24 16:17:02;;;;;;;25.48;16.77;;;;;;;8.66;72.18;100125.31;5569349;32;33671;-55
2022/11/24 16:20:04;;;;;;;25.25;16.12;;;;;;;8.96;77.72;100128.91;5569388;32;33744;-55
2022/11/24 16:23:07;;;;;;;25.55;17.00;;;;;;;8.98;73.09;100126.78;5569282;32;33788;-56
2022/11/24 16:26:09;;;;;;;26.95;16.48;;;;;;;8.88;81.73;100124.97;5569358;32;33504;-55
2022/11/24 16:29:11;;;;;;;25.20;16.23;;;;;;;8.65;72.83;100134.41;5568951;32;33242;-55
2022/11/24 16:32:13;;;;;;;26.67;16.55;;;;;;;8.84;78.33;100123.88;5569343;32;33482;-55
2022/11/24 16:35:16;;;;;;;26.62;16.65;;;;;;;8.46;73.43;100129.66;5569210;32;34467;-54
2022/11/24 16:38:19;;;;;;;27.52;16.40;;;;;;;8.57;75.50;100129.59;5569093;32;33769;-55
2022/11/24 16:41:22;;;;;;;30.25;17.62;;;;;;;8.73;90.22;100131.16;5569080;32;33734;-55
2022/11/24 16:44:24;;;;;;;26.98;16.62;;;;;;;8.78;79.04;100133.81;5569043;32;34473;-56
